sensor_id;sensor_type;location;lat;lon;timestamp;temperature;humidity
26326;DHT22;14032;52.510;7.342;2024-01-30T00:01:43;7.50;99.90
26326;DHT22;14032;52.510;7.342;2024-01-30T00:04:09;7.50;99.90
26326;DHT22;14032;52.510;7.342;2024-01-30T00:06:34;7.40;99.90
26326;DHT22;14032;52.510;7.342;2024-01-30T00:09:00;7.40;99.90
26326;DHT22;14032;52.510;7.342;2024-01-30T00:11:25;7.40;99.90
26326;DHT22;14032;52.510;7.342;2024-01-30T00:13:52;7.40;99.90
26326;DHT22;14032;52.510;7.342;2024-01-30T00:16:21;7.40;99.90
26326;DHT22;14032;52.510;7.342;2024-01-30T00:18:48;7.40;99.90
26326;DHT22;14032;52.510;7.342;2024-01-30T00:21:14;7.30;99.90
26326;DHT22;14032;52.510;7.342;2024-01-30T00:23:39;7.30;99.90
26326;DHT22;14032;52.510;7.342;2024-01-30T00:26:05;7.30;99.90
26326;DHT22;14032;52.510;7.342;2024-01-30T00:28:31;7.30;99.90
26326;DHT22;14032;52.510;7.342;2024-01-30T00:30:57;7.20;99.90
26326;DHT22;14032;52.510;7.342;2024-01-30T00:33:22;7.20;99.90
26326;DHT22;14032;52.510;7.342;2024-01-30T00:35:48;7.20;99.90
26326;DHT22;14032;52.510;7.342;2024-01-30T00:38:13;7.20;99.90
26326;DHT22;14032;52.510;7.342;2024-01-30T00:40:39;7.10;99.90
26326;DHT22;14032;52.510;7.342;2024-01-30T00:43:04;7.10;99.90
26326;DHT22;14032;52.510;7.342;2024-01-30T00:45:30;7.10;99.90
26326;DHT22;14032;52.510;7.342;2024-01-30T00:47:55;7.10;99.90
26326;DHT22;14032;52.510;7.342;2024-01-30T00:50:21;7.00;99.90
26326;DHT22;14032;52.510;7.342;2024-01-30T00:52:46;7.10;99.90
26326;DHT22;14032;52.510;7.342;2024-01-30T00:55:12;7.10;99.90
26326;DHT22;14032;52.510;7.342;2024-01-30T00:57:39;7.10;99.90
26326;DHT22;14032;52.510;7.342;2024-01-30T01:00:05;7.10;99.90
26326;DHT22;14032;52.510;7.342;2024-01-30T01:02:33;7.10;99.90
26326;DHT22;14032;52.510;7.342;2024-01-30T01:04:59;7.10;99.90
26326;DHT22;14032;52.510;7.342;2024-01-30T01:07:25;7.10;99.90
26326;DHT22;14032;52.510;7.342;2024-01-30T01:09:50;7.10;99.90
26326;DHT22;14032;52.510;7.342;2024-01-30T01:12:16;7.10;99.90
26326;DHT22;14032;52.510;7.342;2024-01-30T01:14:42;7.10;99.90
26326;DHT22;14032;52.510;7.342;2024-01-30T01:17:07;7.10;99.90
26326;DHT22;14032;52.510;7.342;2024-01-30T01:19:33;7.10;99.90
26326;DHT22;14032;52.510;7.342;2024-01-30T01:21:58;7.10;99.90
26326;DHT22;14032;52.510;7.342;2024-01-30T01:24:24;7.20;99.90
26326;DHT22;14032;52.510;7.342;2024-01-30T01:26:49;7.20;99.90
26326;DHT22;14032;52.510;7.342;2024-01-30T01:29:15;7.20;99.90
26326;DHT22;14032;52.510;7.342;2024-01-30T01:31:41;7.20;99.90
26326;DHT22;14032;52.510;7.342;2024-01-30T01:34:13;7.20;99.90
26326;DHT22;14032;52.510;7.342;2024-01-30T01:36:39;7.20;99.90
26326;DHT22;14032;52.510;7.342;2024-01-30T01:39:05;7.20;99.90
26326;DHT22;14032;52.510;7.342;2024-01-30T01:41:31;7.20;99.90
26326;DHT22;14032;52.510;7.342;2024-01-30T01:43:59;7.10;99.90
26326;DHT22;14032;52.510;7.342;2024-01-30T01:46:32;7.10;99.90
26326;DHT22;14032;52.510;7.342;2024-01-30T01:48:58;7.10;99.90
26326;DHT22;14032;52.510;7.342;2024-01-30T01:51:27;7.10;99.90
26326;DHT22;14032;52.510;7.342;2024-01-30T01:53:57;7.10;99.90
26326;DHT22;14032;52.510;7.342;2024-01-30T01:56:24;7.10;99.90
26326;DHT22;14032;52.510;7.342;2024-01-30T01:58:51;7.10;99.90
26326;DHT22;14032;52.510;7.342;2024-01-30T02:01:20;7.10;99.90
26326;DHT22;14032;52.510;7.342;2024-01-30T02:03:48;7.10;99.90
26326;DHT22;14032;52.510;7.342;2024-01-30T02:06:16;7.10;99.90
26326;DHT22;14032;52.510;7.342;2024-01-30T02:08:42;7.10;99.90
26326;DHT22;14032;52.510;7.342;2024-01-30T02:11:07;7.10;99.90
26326;DHT22;14032;52.510;7.342;2024-01-30T02:13:33;7.10;99.90
26326;DHT22;14032;52.510;7.342;2024-01-30T02:15:59;7.10;99.90
26326;DHT22;14032;52.510;7.342;2024-01-30T02:18:26;7.10;99.90
26326;DHT22;14032;52.510;7.342;2024-01-30T02:20:53;7.10;99.90
26326;DHT22;14032;52.510;7.342;2024-01-30T02:23:20;7.10;99.90
26326;DHT22;14032;52.510;7.342;2024-01-30T02:25:45;7.10;99.90
26326;DHT22;14032;52.510;7.342;2024-01-30T02:28:12;7.10;99.90
26326;DHT22;14032;52.510;7.342;2024-01-30T02:30:44;7.10;99.90
26326;DHT22;14032;52.510;7.342;2024-01-30T02:33:10;7.10;99.90
26326;DHT22;14032;52.510;7.342;2024-01-30T02:35:35;7.10;99.90
26326;DHT22;14032;52.510;7.342;2024-01-30T02:38:01;7.10;99.90
26326;DHT22;14032;52.510;7.342;2024-01-30T02:40:27;7.10;99.90
26326;DHT22;14032;52.510;7.342;2024-01-30T02:42:52;7.10;99.90
26326;DHT22;14032;52.510;7.342;2024-01-30T02:45:18;7.10;99.90
26326;DHT22;14032;52.510;7.342;2024-01-30T02:47:43;7.10;99.90
26326;DHT22;14032;52.510;7.342;2024-01-30T02:50:09;7.10;99.90
26326;DHT22;14032;52.510;7.342;2024-01-30T02:52:35;7.10;99.90
26326;DHT22;14032;52.510;7.342;2024-01-30T02:55:01;7.10;99.90
26326;DHT22;14032;52.510;7.342;2024-01-30T02:57:28;7.10;99.90
26326;DHT22;14032;52.510;7.342;2024-01-30T02:59:53;7.10;99.90
26326;DHT22;14032;52.510;7.342;2024-01-30T03:02:19;7.10;99.90
26326;DHT22;14032;52.510;7.342;2024-01-30T03:04:45;7.10;99.90
26326;DHT22;14032;52.510;7.342;2024-01-30T03:07:11;7.10;99.90
26326;DHT22;14032;52.510;7.342;2024-01-30T03:09:37;7.00;99.90
26326;DHT22;14032;52.510;7.342;2024-01-30T03:12:03;7.10;99.90
26326;DHT22;14032;52.510;7.342;2024-01-30T03:14:31;7.00;99.90
26326;DHT22;14032;52.510;7.342;2024-01-30T03:16:57;7.00;99.90
26326;DHT22;14032;52.510;7.342;2024-01-30T03:19:22;7.00;99.90
26326;DHT22;14032;52.510;7.342;2024-01-30T03:21:48;6.90;99.90
26326;DHT22;14032;52.510;7.342;2024-01-30T03:24:14;6.90;99.90
26326;DHT22;14032;52.510;7.342;2024-01-30T03:26:39;6.90;99.90
26326;DHT22;14032;52.510;7.342;2024-01-30T03:29:05;6.90;99.90
26326;DHT22;14032;52.510;7.342;2024-01-30T03:31:30;6.90;99.90
26326;DHT22;14032;52.510;7.342;2024-01-30T03:33:56;6.90;99.90
26326;DHT22;14032;52.510;7.342;2024-01-30T03:36:21;6.80;99.90
26326;DHT22;14032;52.510;7.342;2024-01-30T03:38:47;6.90;99.90
26326;DHT22;14032;52.510;7.342;2024-01-30T03:41:13;6.80;99.90
26326;DHT22;14032;52.510;7.342;2024-01-30T03:43:38;6.90;99.90
26326;DHT22;14032;52.510;7.342;2024-01-30T03:46:04;6.80;99.90
26326;DHT22;14032;52.510;7.342;2024-01-30T03:48:29;6.80;99.90
26326;DHT22;14032;52.510;7.342;2024-01-30T03:50:55;6.80;99.90
26326;DHT22;14032;52.510;7.342;2024-01-30T03:53:21;6.80;99.90
26326;DHT22;14032;52.510;7.342;2024-01-30T03:55:46;6.80;99.90
26326;DHT22;14032;52.510;7.342;2024-01-30T03:58:12;6.80;99.90
26326;DHT22;14032;52.510;7.342;2024-01-30T04:00:38;6.80;99.90
26326;DHT22;14032;52.510;7.342;2024-01-30T04:03:03;6.70;99.90
26326;DHT22;14032;52.510;7.342;2024-01-30T04:05:29;6.80;99.90
26326;DHT22;14032;52.510;7.342;2024-01-30T04:07:55;6.80;99.90
26326;DHT22;14032;52.510;7.342;2024-01-30T04:10:20;6.80;99.90
26326;DHT22;14032;52.510;7.342;2024-01-30T04:12:46;6.70;99.90
26326;DHT22;14032;52.510;7.342;2024-01-30T04:15:11;6.70;99.90
26326;DHT22;14032;52.510;7.342;2024-01-30T04:17:39;6.70;99.90
26326;DHT22;14032;52.510;7.342;2024-01-30T04:20:05;6.70;99.90
26326;DHT22;14032;52.510;7.342;2024-01-30T04:22:31;6.70;99.90
26326;DHT22;14032;52.510;7.342;2024-01-30T04:24:56;6.70;99.90
26326;DHT22;14032;52.510;7.342;2024-01-30T04:27:22;6.70;99.90
26326;DHT22;14032;52.510;7.342;2024-01-30T04:29:47;6.70;99.90
26326;DHT22;14032;52.510;7.342;2024-01-30T04:32:13;6.70;99.90
26326;DHT22;14032;52.510;7.342;2024-01-30T04:34:38;6.70;99.90
26326;DHT22;14032;52.510;7.342;2024-01-30T04:37:04;6.70;99.90
26326;DHT22;14032;52.510;7.342;2024-01-30T04:39:30;6.70;99.90
26326;DHT22;14032;52.510;7.342;2024-01-30T04:41:55;6.70;99.90
26326;DHT22;14032;52.510;7.342;2024-01-30T04:44:21;6.70;99.90
26326;DHT22;14032;52.510;7.342;2024-01-30T04:46:47;6.70;99.90
26326;DHT22;14032;52.510;7.342;2024-01-30T04:49:12;6.70;99.90
26326;DHT22;14032;52.510;7.342;2024-01-30T04:51:38;6.70;99.90
26326;DHT22;14032;52.510;7.342;2024-01-30T04:54:03;6.70;99.90
26326;DHT22;14032;52.510;7.342;2024-01-30T04:56:29;6.70;99.90
26326;DHT22;14032;52.510;7.342;2024-01-30T04:58:54;6.70;99.90
26326;DHT22;14032;52.510;7.342;2024-01-30T05:01:20;6.70;99.90
26326;DHT22;14032;52.510;7.342;2024-01-30T05:03:45;6.70;99.90
26326;DHT22;14032;52.510;7.342;2024-01-30T05:06:11;6.70;99.90
26326;DHT22;14032;52.510;7.342;2024-01-30T05:08:37;6.60;99.90
26326;DHT22;14032;52.510;7.342;2024-01-30T05:11:05;6.60;99.90
26326;DHT22;14032;52.510;7.342;2024-01-30T05:13:31;6.60;99.90
26326;DHT22;14032;52.510;7.342;2024-01-30T05:15:57;6.60;99.90
26326;DHT22;14032;52.510;7.342;2024-01-30T05:18:22;6.60;99.90
26326;DHT22;14032;52.510;7.342;2024-01-30T05:20:50;6.60;99.90
26326;DHT22;14032;52.510;7.342;2024-01-30T05:23:15;6.60;99.90
26326;DHT22;14032;52.510;7.342;2024-01-30T05:25:41;6.60;99.90
26326;DHT22;14032;52.510;7.342;2024-01-30T05:28:06;6.60;99.90
26326;DHT22;14032;52.510;7.342;2024-01-30T05:30:32;6.70;99.90
26326;DHT22;14032;52.510;7.342;2024-01-30T05:32:57;6.60;99.90
26326;DHT22;14032;52.510;7.342;2024-01-30T05:35:23;6.70;99.90
26326;DHT22;14032;52.510;7.342;2024-01-30T05:37:49;6.60;99.90
26326;DHT22;14032;52.510;7.342;2024-01-30T05:40:15;6.60;99.90
26326;DHT22;14032;52.510;7.342;2024-01-30T05:42:41;6.70;99.90
26326;DHT22;14032;52.510;7.342;2024-01-30T05:45:07;6.70;99.90
26326;DHT22;14032;52.510;7.342;2024-01-30T05:47:34;6.70;99.90
26326;DHT22;14032;52.510;7.342;2024-01-30T05:49:59;6.60;99.90
26326;DHT22;14032;52.510;7.342;2024-01-30T05:52:25;6.60;99.90
26326;DHT22;14032;52.510;7.342;2024-01-30T05:54:50;6.70;99.90
26326;DHT22;14032;52.510;7.342;2024-01-30T05:57:16;6.60;99.90
26326;DHT22;14032;52.510;7.342;2024-01-30T05:59:42;6.70;99.90
26326;DHT22;14032;52.510;7.342;2024-01-30T06:02:10;6.60;99.90
26326;DHT22;14032;52.510;7.342;2024-01-30T06:04:36;6.70;99.90
26326;DHT22;14032;52.510;7.342;2024-01-30T06:07:01;6.70;99.90
26326;DHT22;14032;52.510;7.342;2024-01-30T06:09:27;6.70;99.90
26326;DHT22;14032;52.510;7.342;2024-01-30T06:11:54;6.70;99.90
26326;DHT22;14032;52.510;7.342;2024-01-30T06:14:19;6.70;99.90
26326;DHT22;14032;52.510;7.342;2024-01-30T06:16:45;6.70;99.90
26326;DHT22;14032;52.510;7.342;2024-01-30T06:19:10;6.60;99.90
26326;DHT22;14032;52.510;7.342;2024-01-30T06:21:36;6.70;99.90
26326;DHT22;14032;52.510;7.342;2024-01-30T06:24:02;6.70;99.90
26326;DHT22;14032;52.510;7.342;2024-01-30T06:26:28;6.70;99.90
26326;DHT22;14032;52.510;7.342;2024-01-30T06:28:53;6.70;99.90
26326;DHT22;14032;52.510;7.342;2024-01-30T06:31:19;6.70;99.90
26326;DHT22;14032;52.510;7.342;2024-01-30T06:33:47;6.80;99.90
26326;DHT22;14032;52.510;7.342;2024-01-30T06:36:12;6.80;99.90
26326;DHT22;14032;52.510;7.342;2024-01-30T06:38:39;6.80;99.90
26326;DHT22;14032;52.510;7.342;2024-01-30T06:41:04;6.80;99.90
26326;DHT22;14032;52.510;7.342;2024-01-30T06:43:30;6.80;99.90
26326;DHT22;14032;52.510;7.342;2024-01-30T06:45:55;6.80;99.90
26326;DHT22;14032;52.510;7.342;2024-01-30T06:48:21;6.80;99.90
26326;DHT22;14032;52.510;7.342;2024-01-30T06:50:47;6.80;99.90
26326;DHT22;14032;52.510;7.342;2024-01-30T06:53:13;6.90;99.90
26326;DHT22;14032;52.510;7.342;2024-01-30T06:55:38;6.90;99.90
26326;DHT22;14032;52.510;7.342;2024-01-30T06:58:04;6.90;99.90
26326;DHT22;14032;52.510;7.342;2024-01-30T07:00:30;6.90;99.90
26326;DHT22;14032;52.510;7.342;2024-01-30T07:03:02;7.00;99.90
26326;DHT22;14032;52.510;7.342;2024-01-30T07:05:27;7.00;99.90
26326;DHT22;14032;52.510;7.342;2024-01-30T07:07:53;7.00;99.90
26326;DHT22;14032;52.510;7.342;2024-01-30T07:10:18;7.00;99.90
26326;DHT22;14032;52.510;7.342;2024-01-30T07:12:44;7.00;99.90
26326;DHT22;14032;52.510;7.342;2024-01-30T07:15:10;7.00;99.90
26326;DHT22;14032;52.510;7.342;2024-01-30T07:17:35;7.00;99.90
26326;DHT22;14032;52.510;7.342;2024-01-30T07:20:01;7.00;99.90
26326;DHT22;14032;52.510;7.342;2024-01-30T07:22:30;7.00;99.90
26326;DHT22;14032;52.510;7.342;2024-01-30T07:24:56;7.00;99.90
26326;DHT22;14032;52.510;7.342;2024-01-30T07:27:22;7.00;99.90
26326;DHT22;14032;52.510;7.342;2024-01-30T07:29:48;7.00;99.90
26326;DHT22;14032;52.510;7.342;2024-01-30T07:32:14;7.00;99.90
26326;DHT22;14032;52.510;7.342;2024-01-30T07:34:48;6.90;99.90
26326;DHT22;14032;52.510;7.342;2024-01-30T07:37:14;7.00;99.90
26326;DHT22;14032;52.510;7.342;2024-01-30T07:39:41;7.00;99.90
26326;DHT22;14032;52.510;7.342;2024-01-30T07:42:07;7.00;99.90
26326;DHT22;14032;52.510;7.342;2024-01-30T07:44:33;7.00;99.90
26326;DHT22;14032;52.510;7.342;2024-01-30T07:46:59;7.10;99.90
26326;DHT22;14032;52.510;7.342;2024-01-30T07:49:25;7.10;99.90
26326;DHT22;14032;52.510;7.342;2024-01-30T07:51:50;7.10;99.90
26326;DHT22;14032;52.510;7.342;2024-01-30T07:54:16;7.10;99.90
26326;DHT22;14032;52.510;7.342;2024-01-30T07:56:42;7.20;99.90
26326;DHT22;14032;52.510;7.342;2024-01-30T07:59:11;7.20;99.90
26326;DHT22;14032;52.510;7.342;2024-01-30T08:01:37;7.30;99.90
26326;DHT22;14032;52.510;7.342;2024-01-30T08:04:03;7.30;99.90
26326;DHT22;14032;52.510;7.342;2024-01-30T08:06:29;7.30;99.90
26326;DHT22;14032;52.510;7.342;2024-01-30T08:08:55;7.30;99.90
26326;DHT22;14032;52.510;7.342;2024-01-30T08:11:21;7.40;99.90
26326;DHT22;14032;52.510;7.342;2024-01-30T08:13:55;7.40;99.90
26326;DHT22;14032;52.510;7.342;2024-01-30T08:16:20;7.40;99.90
26326;DHT22;14032;52.510;7.342;2024-01-30T08:18:46;7.50;99.90
26326;DHT22;14032;52.510;7.342;2024-01-30T08:21:11;7.50;99.90
26326;DHT22;14032;52.510;7.342;2024-01-30T08:23:39;7.50;99.90
26326;DHT22;14032;52.510;7.342;2024-01-30T08:26:05;7.50;99.90
26326;DHT22;14032;52.510;7.342;2024-01-30T08:28:31;7.50;99.90
26326;DHT22;14032;52.510;7.342;2024-01-30T08:30:56;7.50;99.90
26326;DHT22;14032;52.510;7.342;2024-01-30T08:33:22;7.50;99.90
26326;DHT22;14032;52.510;7.342;2024-01-30T08:35:48;7.60;99.90
26326;DHT22;14032;52.510;7.342;2024-01-30T08:38:13;7.60;99.90
26326;DHT22;14032;52.510;7.342;2024-01-30T08:40:39;7.60;99.90
26326;DHT22;14032;52.510;7.342;2024-01-30T08:43:05;7.60;99.90
26326;DHT22;14032;52.510;7.342;2024-01-30T08:45:30;7.60;99.90
26326;DHT22;14032;52.510;7.342;2024-01-30T08:47:56;7.70;99.90
26326;DHT22;14032;52.510;7.342;2024-01-30T08:50:22;7.70;99.90
26326;DHT22;14032;52.510;7.342;2024-01-30T08:52:48;7.70;99.90
26326;DHT22;14032;52.510;7.342;2024-01-30T08:55:13;7.70;99.90
26326;DHT22;14032;52.510;7.342;2024-01-30T08:57:39;7.80;99.90
26326;DHT22;14032;52.510;7.342;2024-01-30T09:00:05;7.80;99.90
26326;DHT22;14032;52.510;7.342;2024-01-30T09:02:33;7.90;99.90
26326;DHT22;14032;52.510;7.342;2024-01-30T09:04:59;7.90;99.90
26326;DHT22;14032;52.510;7.342;2024-01-30T09:07:25;8.00;99.90
26326;DHT22;14032;52.510;7.342;2024-01-30T09:09:50;8.00;99.90
26326;DHT22;14032;52.510;7.342;2024-01-30T09:12:16;8.10;99.90
26326;DHT22;14032;52.510;7.342;2024-01-30T09:14:42;8.10;99.90
26326;DHT22;14032;52.510;7.342;2024-01-30T09:17:07;8.20;99.90
26326;DHT22;14032;52.510;7.342;2024-01-30T09:19:33;8.20;99.90
26326;DHT22;14032;52.510;7.342;2024-01-30T09:21:59;8.30;99.90
26326;DHT22;14032;52.510;7.342;2024-01-30T09:24:26;8.30;99.90
26326;DHT22;14032;52.510;7.342;2024-01-30T09:26:52;8.40;99.90
26326;DHT22;14032;52.510;7.342;2024-01-30T09:29:17;8.40;99.90
26326;DHT22;14032;52.510;7.342;2024-01-30T09:31:44;8.50;99.90
26326;DHT22;14032;52.510;7.342;2024-01-30T09:34:10;8.60;99.90
26326;DHT22;14032;52.510;7.342;2024-01-30T09:36:35;8.70;99.90
26326;DHT22;14032;52.510;7.342;2024-01-30T09:39:01;8.70;99.90
26326;DHT22;14032;52.510;7.342;2024-01-30T09:41:27;8.80;99.90
26326;DHT22;14032;52.510;7.342;2024-01-30T09:43:57;8.90;99.90
26326;DHT22;14032;52.510;7.342;2024-01-30T09:46:27;9.00;99.90
26326;DHT22;14032;52.510;7.342;2024-01-30T09:48:53;9.10;99.90
26326;DHT22;14032;52.510;7.342;2024-01-30T09:51:21;9.20;99.90
26326;DHT22;14032;52.510;7.342;2024-01-30T09:53:48;9.20;99.90
26326;DHT22;14032;52.510;7.342;2024-01-30T09:56:14;9.30;99.90
26326;DHT22;14032;52.510;7.342;2024-01-30T09:58:39;9.40;99.90
26326;DHT22;14032;52.510;7.342;2024-01-30T10:01:05;9.50;99.90
26326;DHT22;14032;52.510;7.342;2024-01-30T10:03:31;9.50;99.90
26326;DHT22;14032;52.510;7.342;2024-01-30T10:05:57;9.60;99.90
26326;DHT22;14032;52.510;7.342;2024-01-30T10:08:23;9.70;99.90
26326;DHT22;14032;52.510;7.342;2024-01-30T10:10:50;9.70;99.90
26326;DHT22;14032;52.510;7.342;2024-01-30T10:13:16;9.80;99.90
26326;DHT22;14032;52.510;7.342;2024-01-30T10:15:42;9.90;99.90
26326;DHT22;14032;52.510;7.342;2024-01-30T10:18:11;10.00;99.90
26326;DHT22;14032;52.510;7.342;2024-01-30T10:20:37;10.00;99.90
26326;DHT22;14032;52.510;7.342;2024-01-30T10:23:03;10.10;99.90
26326;DHT22;14032;52.510;7.342;2024-01-30T10:25:31;10.10;99.90
26326;DHT22;14032;52.510;7.342;2024-01-30T10:27:57;10.20;99.90
26326;DHT22;14032;52.510;7.342;2024-01-30T10:30:24;10.20;99.90
26326;DHT22;14032;52.510;7.342;2024-01-30T10:32:58;10.30;99.90
26326;DHT22;14032;52.510;7.342;2024-01-30T10:35:24;10.30;99.90
26326;DHT22;14032;52.510;7.342;2024-01-30T10:37:49;10.40;99.90
26326;DHT22;14032;52.510;7.342;2024-01-30T10:40:15;10.50;99.90
26326;DHT22;14032;52.510;7.342;2024-01-30T10:42:45;10.50;99.90
26326;DHT22;14032;52.510;7.342;2024-01-30T10:45:14;10.50;99.90
26326;DHT22;14032;52.510;7.342;2024-01-30T10:47:44;10.50;99.90
26326;DHT22;14032;52.510;7.342;2024-01-30T10:50:13;10.60;99.90
26326;DHT22;14032;52.510;7.342;2024-01-30T10:52:40;10.60;99.90
26326;DHT22;14032;52.510;7.342;2024-01-30T10:55:07;10.60;99.90
26326;DHT22;14032;52.510;7.342;2024-01-30T10:57:37;10.60;99.90
26326;DHT22;14032;52.510;7.342;2024-01-30T11:00:05;10.60;99.90
26326;DHT22;14032;52.510;7.342;2024-01-30T11:02:40;10.60;99.90
26326;DHT22;14032;52.510;7.342;2024-01-30T11:05:05;10.60;99.90
26326;DHT22;14032;52.510;7.342;2024-01-30T11:07:31;10.60;99.90
26326;DHT22;14032;52.510;7.342;2024-01-30T11:10:00;10.50;99.90
26326;DHT22;14032;52.510;7.342;2024-01-30T11:12:27;10.60;99.90
26326;DHT22;14032;52.510;7.342;2024-01-30T11:15:07;10.60;99.90
26326;DHT22;14032;52.510;7.342;2024-01-30T11:17:53;10.70;99.90
26326;DHT22;14032;52.510;7.342;2024-01-30T11:20:27;10.70;99.90
26326;DHT22;14032;52.510;7.342;2024-01-30T11:22:53;10.70;99.90
26326;DHT22;14032;52.510;7.342;2024-01-30T11:25:22;10.80;99.90
26326;DHT22;14032;52.510;7.342;2024-01-30T11:27:53;10.80;99.90
26326;DHT22;14032;52.510;7.342;2024-01-30T11:30:26;10.80;99.90
26326;DHT22;14032;52.510;7.342;2024-01-30T11:33:00;10.80;99.90
26326;DHT22;14032;52.510;7.342;2024-01-30T11:35:26;10.80;99.90
26326;DHT22;14032;52.510;7.342;2024-01-30T11:37:51;10.80;99.90
26326;DHT22;14032;52.510;7.342;2024-01-30T11:40:17;10.80;99.90
26326;DHT22;14032;52.510;7.342;2024-01-30T11:42:44;10.80;99.90
26326;DHT22;14032;52.510;7.342;2024-01-30T11:45:10;10.80;99.90
26326;DHT22;14032;52.510;7.342;2024-01-30T11:47:37;10.90;99.90
26326;DHT22;14032;52.510;7.342;2024-01-30T11:50:05;10.90;99.90
26326;DHT22;14032;52.510;7.342;2024-01-30T11:52:33;10.90;99.90
26326;DHT22;14032;52.510;7.342;2024-01-30T11:54:59;10.90;99.90
26326;DHT22;14032;52.510;7.342;2024-01-30T11:57:28;10.90;99.90
26326;DHT22;14032;52.510;7.342;2024-01-30T11:59:54;10.90;99.90
26326;DHT22;14032;52.510;7.342;2024-01-30T12:02:19;10.90;99.90
26326;DHT22;14032;52.510;7.342;2024-01-30T12:04:45;10.90;99.90
26326;DHT22;14032;52.510;7.342;2024-01-30T12:07:11;11.00;99.90
26326;DHT22;14032;52.510;7.342;2024-01-30T12:09:37;11.00;99.90
26326;DHT22;14032;52.510;7.342;2024-01-30T12:12:03;11.00;99.90
26326;DHT22;14032;52.510;7.342;2024-01-30T12:14:29;11.00;99.90
26326;DHT22;14032;52.510;7.342;2024-01-30T12:16:54;11.00;99.90
26326;DHT22;14032;52.510;7.342;2024-01-30T12:19:24;11.00;99.90
26326;DHT22;14032;52.510;7.342;2024-01-30T12:21:59;11.00;99.90
26326;DHT22;14032;52.510;7.342;2024-01-30T12:24:28;11.10;99.90
26326;DHT22;14032;52.510;7.342;2024-01-30T12:26:59;11.10;99.90
26326;DHT22;14032;52.510;7.342;2024-01-30T12:29:24;11.10;99.90
26326;DHT22;14032;52.510;7.342;2024-01-30T12:31:53;11.10;99.90
26326;DHT22;14032;52.510;7.342;2024-01-30T12:34:20;11.20;99.90
26326;DHT22;14032;52.510;7.342;2024-01-30T12:36:47;11.10;99.90
26326;DHT22;14032;52.510;7.342;2024-01-30T12:39:15;11.10;99.90
26326;DHT22;14032;52.510;7.342;2024-01-30T12:41:40;11.20;99.90
26326;DHT22;14032;52.510;7.342;2024-01-30T12:44:06;11.20;99.90
26326;DHT22;14032;52.510;7.342;2024-01-30T12:46:34;11.20;99.90
26326;DHT22;14032;52.510;7.342;2024-01-30T12:49:00;11.20;99.90
26326;DHT22;14032;52.510;7.342;2024-01-30T12:51:25;11.20;99.90
26326;DHT22;14032;52.510;7.342;2024-01-30T12:54:06;11.20;99.90
26326;DHT22;14032;52.510;7.342;2024-01-30T12:56:32;11.30;99.90
26326;DHT22;14032;52.510;7.342;2024-01-30T12:58:58;11.30;99.90
26326;DHT22;14032;52.510;7.342;2024-01-30T13:01:23;11.30;99.90
26326;DHT22;14032;52.510;7.342;2024-01-30T13:03:49;11.30;99.90
26326;DHT22;14032;52.510;7.342;2024-01-30T13:06:15;11.30;99.90
26326;DHT22;14032;52.510;7.342;2024-01-30T13:08:40;11.30;99.90
26326;DHT22;14032;52.510;7.342;2024-01-30T13:11:12;11.30;99.90
26326;DHT22;14032;52.510;7.342;2024-01-30T13:13:38;11.30;99.90
26326;DHT22;14032;52.510;7.342;2024-01-30T13:16:03;11.40;99.90
26326;DHT22;14032;52.510;7.342;2024-01-30T13:18:29;11.40;99.90
26326;DHT22;14032;52.510;7.342;2024-01-30T13:20:55;11.40;99.90
26326;DHT22;14032;52.510;7.342;2024-01-30T13:23:20;11.40;99.90
26326;DHT22;14032;52.510;7.342;2024-01-30T13:25:46;11.40;99.90
26326;DHT22;14032;52.510;7.342;2024-01-30T13:28:12;11.40;99.90
26326;DHT22;14032;52.510;7.342;2024-01-30T13:30:38;11.40;99.90
26326;DHT22;14032;52.510;7.342;2024-01-30T13:33:04;11.40;99.90
26326;DHT22;14032;52.510;7.342;2024-01-30T13:35:30;11.50;99.90
26326;DHT22;14032;52.510;7.342;2024-01-30T13:37:56;11.50;99.90
26326;DHT22;14032;52.510;7.342;2024-01-30T13:40:21;11.50;99.90
26326;DHT22;14032;52.510;7.342;2024-01-30T13:42:47;11.50;99.90
26326;DHT22;14032;52.510;7.342;2024-01-30T13:45:13;11.50;99.90
26326;DHT22;14032;52.510;7.342;2024-01-30T13:47:39;11.50;99.90
26326;DHT22;14032;52.510;7.342;2024-01-30T13:50:06;11.50;99.90
26326;DHT22;14032;52.510;7.342;2024-01-30T13:52:31;11.40;99.90
26326;DHT22;14032;52.510;7.342;2024-01-30T13:54:57;11.40;99.90
26326;DHT22;14032;52.510;7.342;2024-01-30T13:57:23;11.40;99.90
26326;DHT22;14032;52.510;7.342;2024-01-30T13:59:48;11.40;99.90
26326;DHT22;14032;52.510;7.342;2024-01-30T14:02:14;11.30;99.90
26326;DHT22;14032;52.510;7.342;2024-01-30T14:04:39;11.30;99.90
26326;DHT22;14032;52.510;7.342;2024-01-30T14:07:05;11.30;99.90
26326;DHT22;14032;52.510;7.342;2024-01-30T14:09:31;11.30;99.90
26326;DHT22;14032;52.510;7.342;2024-01-30T14:11:58;11.30;99.90
26326;DHT22;14032;52.510;7.342;2024-01-30T14:14:24;11.20;99.90
26326;DHT22;14032;52.510;7.342;2024-01-30T14:16:49;11.20;99.90
26326;DHT22;14032;52.510;7.342;2024-01-30T14:19:16;11.20;99.90
26326;DHT22;14032;52.510;7.342;2024-01-30T14:21:41;11.20;99.90
26326;DHT22;14032;52.510;7.342;2024-01-30T14:24:07;11.20;99.90
26326;DHT22;14032;52.510;7.342;2024-01-30T14:26:33;11.20;99.90
26326;DHT22;14032;52.510;7.342;2024-01-30T14:29:02;11.20;99.90
26326;DHT22;14032;52.510;7.342;2024-01-30T14:31:27;11.20;99.90
26326;DHT22;14032;52.510;7.342;2024-01-30T14:33:53;11.20;99.90
26326;DHT22;14032;52.510;7.342;2024-01-30T14:36:20;11.10;99.90
26326;DHT22;14032;52.510;7.342;2024-01-30T14:38:46;11.20;99.90
26326;DHT22;14032;52.510;7.342;2024-01-30T14:41:11;11.20;99.90
26326;DHT22;14032;52.510;7.342;2024-01-30T14:43:37;11.20;99.90
26326;DHT22;14032;52.510;7.342;2024-01-30T14:46:03;11.20;99.90
26326;DHT22;14032;52.510;7.342;2024-01-30T14:48:31;11.20;99.90
26326;DHT22;14032;52.510;7.342;2024-01-30T14:50:57;11.10;99.90
26326;DHT22;14032;52.510;7.342;2024-01-30T14:53:23;11.10;99.90
26326;DHT22;14032;52.510;7.342;2024-01-30T14:55:48;11.10;99.90
26326;DHT22;14032;52.510;7.342;2024-01-30T14:58:14;11.20;99.90
26326;DHT22;14032;52.510;7.342;2024-01-30T15:00:40;11.10;99.90
26326;DHT22;14032;52.510;7.342;2024-01-30T15:03:05;11.10;99.90
26326;DHT22;14032;52.510;7.342;2024-01-30T15:05:31;11.00;99.90
26326;DHT22;14032;52.510;7.342;2024-01-30T15:07:58;11.00;99.90
26326;DHT22;14032;52.510;7.342;2024-01-30T15:10:24;10.90;99.90
26326;DHT22;14032;52.510;7.342;2024-01-30T15:12:52;10.90;99.90
26326;DHT22;14032;52.510;7.342;2024-01-30T15:15:18;10.80;99.90
26326;DHT22;14032;52.510;7.342;2024-01-30T15:17:44;10.80;99.90
26326;DHT22;14032;52.510;7.342;2024-01-30T15:20:09;10.80;99.90
26326;DHT22;14032;52.510;7.342;2024-01-30T15:22:35;10.70;99.90
26326;DHT22;14032;52.510;7.342;2024-01-30T15:25:00;10.70;99.90
26326;DHT22;14032;52.510;7.342;2024-01-30T15:27:26;10.60;99.90
26326;DHT22;14032;52.510;7.342;2024-01-30T15:29:52;10.50;99.90
26326;DHT22;14032;52.510;7.342;2024-01-30T15:32:18;10.50;99.90
26326;DHT22;14032;52.510;7.342;2024-01-30T15:34:43;10.40;99.90